Time;durP1;ratioP1;P1;durP2;ratioP2;P2;SDS_P1;SDS_P2;PMS_P1;PMS_P2;Temp;Humidity;BMP_temperature;BMP_pressure;BME280_temperature;BME280_humidity;BME280_pressure;Samples;Min_cycle;Max_cycle;Signal;HPM_P1;HPM_P2
2022/06/15 00:00:23;;;;;;;9.75;6.43;;;;;;;15.23;64.17;101888.09;5063980;28;20025;-78
2022/06/15 00:02:49;;;;;;;9.82;6.20;;;;;;;15.22;64.22;101889.00;5070237;28;20036;-78
2022/06/15 00:05:14;;;;;;;7.88;5.70;;;;;;;15.20;63.91;101884.56;5069717;28;20028;-78
2022/06/15 00:07:39;;;;;;;9.52;5.60;;;;;;;15.18;63.95;101884.53;5070174;28;20495;-78
2022/06/15 00:10:05;;;;;;;9.23;5.60;;;;;;;15.14;64.19;101880.06;5070423;28;20043;-78
2022/06/15 00:12:31;;;;;;;8.57;5.20;;;;;;;15.09;64.32;101877.34;5068614;28;20504;-77
2022/06/15 00:14:56;;;;;;;8.73;5.50;;;;;;;15.06;65.19;101882.53;5066427;28;20056;-79
2022/06/15 00:17:21;;;;;;;10.27;6.10;;;;;;;15.01;65.04;101884.16;5067554;28;20044;-78
2022/06/15 00:19:46;;;;;;;9.38;5.95;;;;;;;14.94;64.54;101883.13;5069368;28;20024;-78
2022/06/15 00:22:12;;;;;;;7.35;5.57;;;;;;;14.90;64.74;101869.88;5068096;28;20050;-78
2022/06/15 00:24:37;;;;;;;9.32;5.70;;;;;;;14.85;65.01;101871.53;5070268;28;20024;-78
2022/06/15 00:27:03;;;;;;;11.57;5.90;;;;;;;14.81;64.95;101870.56;5056199;28;20442;-78
2022/06/15 00:29:30;;;;;;;10.75;5.57;;;;;;;14.77;65.37;101871.34;5051663;28;20059;-78
2022/06/15 00:31:55;;;;;;;10.23;6.38;;;;;;;14.77;65.35;101868.72;5063611;28;20059;-78
2022/06/15 00:34:21;;;;;;;10.45;6.00;;;;;;;14.73;65.07;101873.03;5057053;28;20052;-78
2022/06/15 00:36:46;;;;;;;9.00;5.72;;;;;;;14.70;65.77;101869.44;5055652;28;20086;-78
2022/06/15 00:39:11;;;;;;;9.82;6.55;;;;;;;14.70;66.13;101867.72;5070035;28;20060;-78
2022/06/15 00:41:38;;;;;;;10.30;7.03;;;;;;;14.66;66.32;101865.00;5068077;28;20032;-78
2022/06/15 00:44:21;;;;;;;9.07;6.82;;;;;;;14.71;65.76;101863.34;5069810;28;20103;-78
2022/06/15 00:46:54;;;;;;;11.68;7.15;;;;;;;14.61;65.35;101862.22;5068305;28;20116;-78
2022/06/15 00:49:24;;;;;;;8.88;6.95;;;;;;;14.62;65.87;101860.53;5069779;28;20059;-78
2022/06/15 00:51:55;;;;;;;10.23;7.60;;;;;;;14.56;66.01;101851.63;5050609;28;20387;-78
2022/06/15 00:54:22;;;;;;;10.02;7.45;;;;;;;14.59;65.97;101853.44;5069863;28;20020;-79
2022/06/15 00:56:48;;;;;;;12.13;7.60;;;;;;;14.59;65.83;101863.91;5069386;28;20032;-79
2022/06/15 00:59:22;;;;;;;10.60;7.43;;;;;;;14.58;65.88;101865.66;5072161;28;20197;-78
2022/06/15 01:01:48;;;;;;;10.60;6.88;;;;;;;14.56;66.18;101861.22;5059747;28;20112;-78
2022/06/15 01:04:15;;;;;;;10.82;7.88;;;;;;;14.52;66.81;101855.00;5063740;28;20589;-78
2022/06/15 01:06:48;;;;;;;12.23;8.05;;;;;;;14.49;66.54;101849.69;5073492;28;20025;-78
2022/06/15 01:09:26;;;;;;;11.45;8.02;;;;;;;14.49;66.90;101847.06;5072328;28;20020;-78
2022/06/15 01:12:08;;;;;;;12.82;7.80;;;;;;;14.52;66.44;101848.88;5064533;28;20028;-78
2022/06/15 01:14:43;;;;;;;11.98;7.90;;;;;;;14.47;67.17;101843.53;5055119;28;20412;-79
2022/06/15 01:17:30;;;;;;;11.23;8.23;;;;;;;14.49;66.30;101843.56;5046359;28;20029;-78
2022/06/15 01:20:26;;;;;;;11.60;8.05;;;;;;;14.49;66.76;101846.19;5072362;28;20032;-78
2022/06/15 01:23:39;;;;;;;13.15;8.43;;;;;;;14.46;67.06;101852.25;5066551;28;20028;-78
2022/06/15 01:26:17;;;;;;;12.15;8.75;;;;;;;14.46;67.14;101851.38;4991582;28;20030;-78
2022/06/15 01:28:45;;;;;;;10.47;8.23;;;;;;;14.39;67.13;101845.97;4978866;28;20053;-78
2022/06/15 01:31:31;;;;;;;11.68;8.55;;;;;;;14.36;66.90;101850.25;5019183;28;20037;-79
2022/06/15 01:34:01;;;;;;;12.68;8.75;;;;;;;14.33;67.06;101848.44;5061917;28;20028;-78
2022/06/15 01:36:34;;;;;;;10.15;8.65;;;;;;;14.23;67.31;101835.97;5073348;28;20476;-78
2022/06/15 01:39:11;;;;;;;11.25;8.95;;;;;;;14.25;67.37;101848.28;5072922;28;20547;-78
2022/06/15 01:41:43;;;;;;;13.60;8.80;;;;;;;14.20;67.50;101841.13;5072643;28;20062;-78
2022/06/15 01:44:23;;;;;;;10.50;9.15;;;;;;;14.19;67.41;101841.97;5072709;28;20441;-78
2022/06/15 01:46:48;;;;;;;;;;;;;;;14.35;65.85;101838.91;5070682;28;20424;-78
2022/06/15 01:49:29;;;;;;;12.65;9.45;;;;;;;14.17;67.08;101835.81;5072702;28;19955;-79
2022/06/15 01:51:57;;;;;;;12.60;9.60;;;;;;;14.12;67.57;101840.06;5066012;28;20446;-78
2022/06/15 01:54:28;;;;;;;13.98;8.73;;;;;;;14.04;67.28;101838.13;5066538;28;20028;-78
2022/06/15 01:56:56;;;;;;;11.10;8.70;;;;;;;13.98;67.58;101837.09;5070122;28;20039;-79
2022/06/15 01:59:35;;;;;;;11.43;9.27;;;;;;;13.98;67.31;101839.72;5072356;28;20016;-78
2022/06/15 02:02:18;;;;;;;11.15;8.63;;;;;;;13.95;67.73;101832.66;5070654;28;20028;-78
2022/06/15 02:04:53;;;;;;;12.30;8.80;;;;;;;13.92;67.67;101837.81;5058339;28;20116;-78
2022/06/15 02:07:25;;;;;;;12.18;8.93;;;;;;;13.89;67.99;101832.50;5060284;28;20058;-78
2022/06/15 02:09:59;;;;;;;11.35;8.63;;;;;;;13.87;67.78;101826.31;5071028;28;20051;-78
2022/06/15 02:12:33;;;;;;;10.43;8.45;;;;;;;13.82;68.12;101825.34;5069522;28;20155;-78
2022/06/15 02:15:02;;;;;;;9.68;8.60;;;;;;;13.80;68.06;101827.94;5072148;28;20068;-78
2022/06/15 02:17:34;;;;;;;17.17;8.77;;;;;;;13.77;67.72;101822.56;5065137;28;20025;-78
2022/06/15 02:20:18;;;;;;;12.45;9.05;;;;;;;13.79;67.73;101822.59;5072216;28;20036;-78
2022/06/15 02:22:45;;;;;;;13.68;9.30;;;;;;;13.78;68.36;101815.63;5067710;28;20035;-78
2022/06/15 02:25:19;;;;;;;13.07;8.95;;;;;;;13.72;68.29;101819.84;5061063;28;20105;-78
2022/06/15 02:27:46;;;;;;;10.48;8.98;;;;;;;13.67;67.96;101821.47;5066472;28;20087;-78
2022/06/15 02:30:18;;;;;;;11.73;8.75;;;;;;;13.66;68.29;101814.44;5062407;28;20511;-78
2022/06/15 02:32:47;;;;;;;12.35;9.13;;;;;;;13.64;68.38;101820.50;5057965;28;20487;-78
2022/06/15 02:35:14;;;;;;;14.00;9.13;;;;;;;13.62;68.65;101815.22;5071629;28;20024;-78
2022/06/15 02:37:39;;;;;;;12.82;9.57;;;;;;;13.60;68.99;101814.28;5037680;28;20491;-78
2022/06/15 02:40:05;;;;;;;14.55;9.35;;;;;;;13.55;69.58;101822.00;5063409;28;20044;-78
2022/06/15 02:42:34;;;;;;;11.77;9.40;;;;;;;13.52;69.36;101815.81;5062959;28;20029;-78
2022/06/15 02:45:03;;;;;;;;;;;;;;;13.71;67.57;101809.31;5072326;28;20035;-78
2022/06/15 02:47:31;;;;;;;12.15;9.57;;;;;;;13.53;69.58;101815.84;5062891;28;19995;-78
2022/06/15 02:49:58;;;;;;;12.07;9.73;;;;;;;13.47;69.99;101806.94;5071487;28;20074;-78
2022/06/15 02:52:30;;;;;;;13.07;9.90;;;;;;;13.42;69.76;101804.19;5061086;28;20455;-78
2022/06/15 02:54:56;;;;;;;14.32;9.20;;;;;;;13.41;69.82;101807.66;5053501;28;20032;-78
2022/06/15 02:57:22;;;;;;;13.98;9.82;;;;;;;13.37;69.22;101796.22;5060574;28;20028;-77
2022/06/15 02:59:48;;;;;;;12.15;9.27;;;;;;;13.35;69.40;101803.16;5071345;28;20032;-78
2022/06/15 03:02:14;;;;;;;12.25;9.05;;;;;;;13.33;70.23;101799.56;5067871;28;20025;-78
2022/06/15 03:04:42;;;;;;;13.32;9.77;;;;;;;13.29;70.06;101796.81;5063561;28;20484;-77
2022/06/15 03:07:07;;;;;;;13.25;9.70;;;;;;;13.29;69.86;101805.56;5065957;28;20056;-78
2022/06/15 03:09:33;;;;;;;13.02;9.40;;;;;;;13.25;69.85;101794.97;5064521;28;20453;-78
2022/06/15 03:11:58;;;;;;;13.90;9.00;;;;;;;13.28;69.79;101800.28;5065543;28;20020;-78
2022/06/15 03:14:23;;;;;;;13.75;9.27;;;;;;;13.22;69.61;101798.38;5058577;28;20053;-78
2022/06/15 03:16:49;;;;;;;12.85;9.20;;;;;;;13.20;69.83;101802.69;5064089;28;20487;-78
2022/06/15 03:19:15;;;;;;;11.80;8.93;;;;;;;13.14;69.65;101805.13;5070174;28;20032;-78
2022/06/15 03:21:40;;;;;;;13.85;9.30;;;;;;;13.18;69.74;101804.38;5064229;28;20155;-78
2022/06/15 03:24:06;;;;;;;11.95;8.98;;;;;;;13.16;70.07;101803.44;5048632;28;20081;-78
2022/06/15 03:26:32;;;;;;;12.63;9.10;;;;;;;13.13;70.32;101798.13;5062252;28;20029;-77
2022/06/15 03:28:57;;;;;;;14.35;9.43;;;;;;;13.09;70.50;101802.38;5068972;28;20123;-78
2022/06/15 03:31:23;;;;;;;13.98;9.43;;;;;;;13.05;71.04;101804.03;5065094;28;20028;-78
2022/06/15 03:33:48;;;;;;;13.30;9.18;;;;;;;13.03;71.15;101802.19;5067975;28;20119;-78
2022/06/15 03:36:13;;;;;;;12.15;9.02;;;;;;;13.02;70.82;101813.50;5070929;28;20480;-78
2022/06/15 03:38:39;;;;;;;12.10;9.02;;;;;;;13.01;70.67;101807.38;5056016;28;20423;-78
2022/06/15 03:41:05;;;;;;;14.45;9.25;;;;;;;12.98;70.64;101809.91;5070686;28;20024;-78
2022/06/15 03:43:30;;;;;;;15.48;9.38;;;;;;;12.99;70.47;101805.56;5066876;28;20173;-78
2022/06/15 03:45:56;;;;;;;12.88;8.73;;;;;;;13.00;70.33;101809.97;5069491;28;20498;-77
2022/06/15 03:48:22;;;;;;;14.43;9.43;;;;;;;13.00;70.83;101808.22;5065919;28;20036;-78
2022/06/15 03:50:47;;;;;;;14.63;8.60;;;;;;;13.01;70.93;101807.38;5070482;28;20031;-78
2022/06/15 03:53:13;;;;;;;13.38;8.95;;;;;;;13.03;70.77;101808.34;5068551;28;20074;-78
2022/06/15 03:55:40;;;;;;;12.15;8.55;;;;;;;13.00;71.20;101808.22;5070404;28;20105;-77
2022/06/15 03:58:06;;;;;;;12.20;8.55;;;;;;;12.99;71.18;101803.84;5055781;28;20028;-78
2022/06/15 04:00:32;;;;;;;15.57;9.13;;;;;;;12.95;71.38;101804.59;5056678;28;20033;-78
2022/06/15 04:02:58;;;;;;;12.52;8.50;;;;;;;12.97;71.13;101813.38;5056678;28;20025;-78
2022/06/15 04:05:28;;;;;;;14.15;9.15;;;;;;;12.95;71.04;101812.44;5069322;28;20100;-78
2022/06/15 04:10:37;;;;;;;14.70;8.50;;;;;;;12.97;71.53;101810.75;5067531;28;20529;-77
2022/06/15 04:13:03;;;;;;;10.85;8.90;;;;;;;12.97;71.68;101817.72;5051608;28;20112;-78
2022/06/15 04:15:29;;;;;;;15.18;9.10;;;;;;;12.97;71.73;101818.59;5070252;28;20024;-78
2022/06/15 04:17:54;;;;;;;11.25;9.00;;;;;;;12.99;71.55;101813.41;5069177;28;20036;-78
2022/06/15 04:20:37;;;;;;;13.68;9.00;;;;;;;12.98;71.85;101817.75;5070154;28;20399;-78
2022/06/15 04:23:12;;;;;;;13.20;8.80;;;;;;;12.99;71.75;101814.31;5061132;28;20020;-78
2022/06/15 04:26:05;;;;;;;12.98;8.85;;;;;;;13.01;71.91;101812.63;5065922;28;20039;-78
2022/06/15 04:28:33;;;;;;;14.43;9.18;;;;;;;13.03;72.05;101810.94;5053082;28;20055;-78
2022/06/15 04:30:58;;;;;;;16.75;9.15;;;;;;;13.02;72.34;101811.78;5060602;28;20036;-78
2022/06/15 04:33:24;;;;;;;13.30;8.60;;;;;;;13.03;72.61;101812.66;5072775;28;20025;-78
2022/06/15 04:35:50;;;;;;;14.60;8.90;;;;;;;13.03;72.36;101816.19;5049861;28;20025;-77
2022/06/15 04:38:15;;;;;;;14.77;8.68;;;;;;;13.06;72.25;101804.91;5057667;28;20039;-78
2022/06/15 04:40:41;;;;;;;16.45;9.77;;;;;;;13.10;72.08;101811.13;5070421;28;20035;-78
2022/06/15 04:43:08;;;;;;;15.48;8.65;;;;;;;13.11;72.48;101807.66;5046710;28;20086;-78
2022/06/15 04:45:35;;;;;;;12.18;9.55;;;;;;;13.15;72.44;101809.50;5069809;28;20119;-78
2022/06/15 04:48:00;;;;;;;13.32;9.60;;;;;;;13.13;72.51;101809.47;5046429;28;20396;-78
2022/06/15 04:50:26;;;;;;;17.50;9.38;;;;;;;13.17;72.44;101813.06;5066799;28;20027;-78
2022/06/15 04:52:51;;;;;;;14.60;9.40;;;;;;;13.21;72.88;101820.16;5062615;28;20028;-78
2022/06/15 04:55:19;;;;;;;14.48;10.02;;;;;;;13.25;73.01;101816.78;5059121;28;20403;-78
2022/06/15 04:57:46;;;;;;;13.18;9.85;;;;;;;13.28;72.69;101827.34;5062640;28;20115;-78
2022/06/15 05:00:15;;;;;;;16.52;9.52;;;;;;;13.29;72.83;101818.63;5066409;28;20035;-78
2022/06/15 05:02:40;;;;;;;14.48;10.10;;;;;;;13.35;72.71;101817.97;5062490;28;20487;-78
2022/06/15 05:05:06;;;;;;;16.25;10.40;;;;;;;13.39;72.72;101822.44;5063761;28;20119;-78
2022/06/15 05:07:31;;;;;;;15.77;10.10;;;;;;;13.41;72.59;101820.75;5068897;28;20032;-78
2022/06/15 05:09:56;;;;;;;15.80;10.35;;;;;;;13.45;72.73;101819.09;5073312;28;20008;-77
2022/06/15 05:12:22;;;;;;;13.90;10.32;;;;;;;13.48;73.14;101821.81;5063456;28;20024;-78
2022/06/15 05:14:48;;;;;;;12.13;9.77;;;;;;;13.52;73.18;101826.28;5072915;28;20047;-77
2022/06/15 05:17:15;;;;;;;14.48;10.60;;;;;;;13.54;73.93;101825.50;5066776;28;20028;-77
2022/06/15 05:19:41;;;;;;;15.90;10.77;;;;;;;13.56;73.35;101817.66;5073133;28;20544;-77
2022/06/15 05:22:06;;;;;;;16.52;11.20;;;;;;;13.57;73.41;101822.06;5067891;28;20060;-77
2022/06/15 05:24:31;;;;;;;19.25;11.57;;;;;;;13.60;73.85;101823.88;5061641;28;20025;-78
2022/06/15 05:26:57;;;;;;;19.55;12.07;;;;;;;13.65;73.24;101828.38;5056964;28;20484;-78
2022/06/15 05:29:22;;;;;;;17.80;11.38;;;;;;;13.67;74.43;101826.72;5058422;28;20028;-78
2022/06/15 05:31:48;;;;;;;17.17;12.13;;;;;;;13.73;73.66;101818.13;5063438;28;20031;-78
2022/06/15 05:34:14;;;;;;;20.15;13.30;;;;;;;13.78;73.97;101819.13;5059722;28;20052;-77
2022/06/15 05:36:39;;;;;;;18.27;12.18;;;;;;;13.80;73.97;101820.06;5067689;28;20066;-78
2022/06/15 05:39:06;;;;;;;24.73;13.40;;;;;;;13.85;73.60;101820.19;5067015;28;20472;-78
2022/06/15 05:41:31;;;;;;;19.85;13.68;;;;;;;13.88;74.11;101821.13;5068728;28;20048;-78
2022/06/15 05:44:03;;;;;;;20.25;14.00;;;;;;;13.94;73.96;101817.78;5069501;28;20513;-78
2022/06/15 05:46:31;;;;;;;22.48;15.63;;;;;;;13.98;74.53;101827.50;5062343;28;20027;-78
2022/06/15 05:48:58;;;;;;;20.60;14.90;;;;;;;14.07;73.72;101832.09;5067932;28;20099;-78
2022/06/15 05:51:24;;;;;;;23.45;16.30;;;;;;;14.15;73.40;101834.88;5071102;28;20052;-78
2022/06/15 05:53:50;;;;;;;26.65;16.83;;;;;;;14.23;73.17;101822.84;5072682;28;20021;-78
2022/06/15 05:56:15;;;;;;;23.15;16.67;;;;;;;14.29;73.78;101816.88;5062505;28;20036;-78
2022/06/15 05:58:41;;;;;;;24.17;15.82;;;;;;;14.40;73.59;101821.53;5062403;28;20102;-78
2022/06/15 06:01:16;;;;;;;22.45;16.48;;;;;;;14.47;74.22;101825.19;5065906;28;20027;-78
2022/06/15 06:03:41;;;;;;;27.23;17.38;;;;;;;14.56;73.42;101820.16;5064335;28;20028;-78
2022/06/15 06:06:09;;;;;;;24.00;17.30;;;;;;;14.67;73.39;101824.78;5056229;28;20021;-78
2022/06/15 06:08:35;;;;;;;24.67;17.60;;;;;;;14.77;72.45;101825.03;5070074;28;20122;-78
2022/06/15 06:11:00;;;;;;;24.90;17.85;;;;;;;14.90;72.59;101825.28;5071555;28;20635;-78
2022/06/15 06:13:25;;;;;;;28.65;18.25;;;;;;;14.99;71.53;101825.50;5057604;28;20037;-78
2022/06/15 06:15:52;;;;;;;24.38;16.58;;;;;;;15.11;70.31;101827.50;5062507;28;20431;-78
2022/06/15 06:18:17;;;;;;;26.48;18.85;;;;;;;15.22;71.31;101825.06;5056355;28;20036;-77
2022/06/15 06:20:42;;;;;;;26.63;17.95;;;;;;;15.33;71.23;101822.66;5065029;28;20391;-78
2022/06/15 06:23:07;;;;;;;25.83;18.73;;;;;;;15.41;71.64;101823.69;5065321;28;20024;-78
2022/06/15 06:25:33;;;;;;;26.73;18.00;;;;;;;15.51;68.05;101819.50;5064177;28;20028;-78
2022/06/15 06:27:58;;;;;;;28.85;19.17;;;;;;;15.60;70.56;101827.56;5070711;28;20023;-78
2022/06/15 06:30:23;;;;;;;26.65;18.80;;;;;;;15.67;70.76;101824.22;5064520;28;20472;-78
2022/06/15 06:32:50;;;;;;;31.35;20.45;;;;;;;15.76;70.68;101818.22;5059220;28;20067;-78
2022/06/15 06:35:15;;;;;;;29.58;19.63;;;;;;;15.84;69.63;101815.75;5070524;28;20103;-78
2022/06/15 06:37:41;;;;;;;27.48;19.73;;;;;;;15.95;69.56;101825.59;5068731;28;20024;-78
2022/06/15 06:40:06;;;;;;;27.90;19.08;;;;;;;16.03;68.83;101830.09;5071723;28;20500;-78
2022/06/15 06:42:32;;;;;;;29.67;19.35;;;;;;;16.11;68.67;101829.38;5070028;28;20020;-78
2022/06/15 06:44:57;;;;;;;27.52;19.45;;;;;;;16.19;68.36;101831.25;5070875;28;20032;-77
2022/06/15 06:47:22;;;;;;;31.17;20.85;;;;;;;16.26;68.25;101822.59;5053217;28;20060;-78
2022/06/15 06:49:48;;;;;;;32.40;20.15;;;;;;;16.33;69.05;101827.97;5046108;28;20028;-78
2022/06/15 06:52:13;;;;;;;29.25;19.45;;;;;;;16.42;68.88;101826.34;5071482;28;20027;-79
2022/06/15 06:54:38;;;;;;;32.47;20.45;;;;;;;16.49;67.29;101825.56;5069963;28;20441;-78
2022/06/15 06:57:04;;;;;;;30.27;20.42;;;;;;;16.56;69.12;101830.06;5066327;28;20035;-78
2022/06/15 06:59:29;;;;;;;28.08;18.77;;;;;;;16.64;68.66;101827.53;5057799;28;20029;-78
2022/06/15 07:01:54;;;;;;;27.45;19.40;;;;;;;16.71;68.18;101834.66;5059450;28;20466;-78
2022/06/15 07:04:21;;;;;;;30.83;21.02;;;;;;;16.78;68.54;101831.25;5070477;28;20062;-78
2022/06/15 07:06:46;;;;;;;29.40;19.65;;;;;;;16.84;67.00;101836.63;5058827;28;20029;-78
2022/06/15 07:09:13;;;;;;;32.45;20.17;;;;;;;16.92;66.58;101839.38;5065618;28;20081;-78
2022/06/15 07:11:41;;;;;;;35.22;19.80;;;;;;;16.99;67.25;101838.59;5067983;28;20017;-78
2022/06/15 07:14:06;;;;;;;33.05;20.45;;;;;;;17.05;67.13;101837.78;5067992;28;20048;-78
2022/06/15 07:16:33;;;;;;;29.70;19.02;;;;;;;17.10;66.23;101838.72;5071006;28;20533;-78
2022/06/15 07:18:58;;;;;;;29.25;19.63;;;;;;;17.17;65.29;101847.59;5067871;28;20524;-79
2022/06/15 07:21:25;;;;;;;29.25;18.88;;;;;;;17.26;66.04;101844.19;5052833;28;20044;-78
2022/06/15 07:23:55;;;;;;;30.55;19.58;;;;;;;17.31;65.73;101845.13;5069754;28;20040;-78
2022/06/15 07:26:42;;;;;;;29.20;19.10;;;;;;;17.38;65.77;101839.94;5060513;28;20029;-78
2022/06/15 07:29:08;;;;;;;31.92;20.08;;;;;;;17.44;67.37;101841.75;5057035;28;20024;-79
2022/06/15 07:31:37;;;;;;;33.67;20.33;;;;;;;17.55;66.47;101841.88;5062342;28;20483;-77
2022/06/15 07:34:03;;;;;;;31.73;19.67;;;;;;;17.60;63.64;101849.81;5059616;28;20345;-77
2022/06/15 07:36:29;;;;;;;33.50;18.77;;;;;;;17.65;63.17;101842.84;5057985;28;20109;-77
2022/06/15 07:38:56;;;;;;;31.50;17.67;;;;;;;17.66;61.43;101842.88;5058139;28;20036;-78
2022/06/15 07:41:22;;;;;;;32.60;17.08;;;;;;;17.75;63.51;101849.97;5062210;28;20035;-77
2022/06/15 07:43:48;;;;;;;26.95;16.33;;;;;;;17.84;63.49;101844.81;5070368;28;20028;-78
2022/06/15 07:46:14;;;;;;;27.38;17.05;;;;;;;17.88;63.31;101853.63;5055228;28;20036;-78
2022/06/15 07:51:36;;;;;;;28.52;17.02;;;;;;;18.03;64.48;101845.91;5056760;28;20035;-78
2022/06/15 07:54:04;;;;;;;26.48;16.85;;;;;;;18.10;64.23;101843.31;5052597;28;20115;-78
2022/06/15 07:56:30;;;;;;;25.10;15.55;;;;;;;18.19;66.73;101848.66;5067671;28;20530;-79
2022/06/15 07:58:55;;;;;;;31.65;17.00;;;;;;;18.25;63.76;101851.38;5070092;28;20036;-78
2022/06/15 08:01:22;;;;;;;28.13;16.77;;;;;;;18.31;65.66;101842.63;5067276;28;20395;-78
2022/06/15 08:03:47;;;;;;;26.67;15.98;;;;;;;18.36;64.99;101844.38;5064101;28;20079;-79
2022/06/15 08:06:14;;;;;;;27.52;15.55;;;;;;;18.44;62.79;101847.09;5062546;28;20024;-78
2022/06/15 08:08:39;;;;;;;34.03;16.30;;;;;;;18.49;58.91;101844.47;5068350;28;20028;-79
2022/06/15 08:11:05;;;;;;;24.35;13.77;;;;;;;18.53;60.09;101849.78;5060822;28;20047;-78
2022/06/15 08:13:30;;;;;;;23.80;13.48;;;;;;;18.60;60.53;101841.03;5062134;28;20124;-78
2022/06/15 08:15:55;;;;;;;22.20;12.48;;;;;;;18.61;56.04;101841.94;5070362;28;20035;-79
2022/06/15 08:18:27;;;;;;;21.50;11.50;;;;;;;18.68;59.85;101846.34;5061327;28;20504;-78
2022/06/15 08:20:57;;;;;;;19.58;11.60;;;;;;;18.70;58.04;101842.00;5061404;28;20031;-78
2022/06/15 08:23:25;;;;;;;20.38;10.25;;;;;;;18.73;58.30;101843.78;5059366;28;20108;-78
2022/06/15 08:25:55;;;;;;;19.65;11.43;;;;;;;18.75;57.56;101848.16;5059604;28;20027;-78
2022/06/15 08:28:24;;;;;;;18.63;11.32;;;;;;;18.79;56.45;101849.06;5062660;28;20035;-78
2022/06/15 08:30:51;;;;;;;22.33;11.68;;;;;;;18.86;59.40;101850.91;5062957;28;20023;-78
2022/06/15 08:33:17;;;;;;;22.73;13.10;;;;;;;18.98;62.82;101843.94;5058956;28;20027;-78
2022/06/15 08:35:42;;;;;;;25.73;12.27;;;;;;;19.05;60.90;101846.59;5059517;28;20024;-78
2022/06/15 08:38:10;;;;;;;19.30;11.70;;;;;;;19.07;60.82;101841.31;5058854;28;20017;-78
2022/06/15 08:40:53;;;;;;;18.87;11.20;;;;;;;19.11;59.68;101846.63;5047870;28;20059;-78
2022/06/15 08:43:34;;;;;;;20.40;11.68;;;;;;;19.18;59.52;101849.31;5056912;28;20068;-78
2022/06/15 08:46:14;;;;;;;23.92;11.52;;;;;;;19.28;61.46;101841.41;5058282;28;20056;-77
2022/06/15 08:49:05;;;;;;;25.40;11.38;;;;;;;19.36;59.35;101843.19;5043487;28;20036;-78
2022/06/15 08:51:37;;;;;;;22.15;11.27;;;;;;;19.48;60.15;101842.34;5069688;28;20290;-78
2022/06/15 08:54:07;;;;;;;22.40;12.05;;;;;;;19.53;57.98;101833.53;5064044;28;20025;-78
2022/06/15 08:56:58;;;;;;;18.83;9.85;;;;;;;19.63;59.58;101845.03;5069871;28;20028;-78
2022/06/15 08:59:40;;;;;;;19.75;10.32;;;;;;;19.70;59.17;101838.00;5067162;28;20558;-78
2022/06/15 09:02:14;;;;;;;17.23;9.32;;;;;;;19.74;57.53;101842.38;5060822;28;20474;-77
2022/06/15 09:04:59;;;;;;;21.45;10.38;;;;;;;19.80;57.06;101834.53;5066683;28;20163;-78
2022/06/15 09:07:36;;;;;;;26.52;12.15;;;;;;;19.79;53.49;101830.09;5062786;28;20438;-78
2022/06/15 09:10:16;;;;;;;18.23;10.70;;;;;;;19.80;52.88;101826.59;5058758;28;20028;-78
2022/06/15 09:13:16;;;;;;;20.77;10.10;;;;;;;19.86;55.55;101834.50;5066301;28;20490;-77
2022/06/15 09:15:51;;;;;;;21.60;11.38;;;;;;;19.95;57.87;101831.00;5042169;28;20063;-78
2022/06/15 09:18:30;;;;;;;22.02;11.82;;;;;;;20.04;56.01;101841.56;5053101;28;20123;-78
2022/06/15 09:21:11;;;;;;;24.42;12.00;;;;;;;20.11;54.54;101834.53;5059831;28;20488;-78
2022/06/15 09:23:44;;;;;;;23.13;12.43;;;;;;;20.14;51.93;101838.03;5060673;28;20063;-78
2022/06/15 09:26:38;;;;;;;24.10;11.18;;;;;;;20.21;54.12;101832.75;5059201;28;20082;-77
2022/06/15 09:29:10;;;;;;;20.38;9.95;;;;;;;20.27;55.46;101830.09;5026614;28;20067;-79
2022/06/15 09:31:42;;;;;;;18.70;10.05;;;;;;;20.37;54.13;101831.84;5056230;28;20037;-79
2022/06/15 09:34:14;;;;;;;21.83;11.65;;;;;;;20.41;51.67;101830.09;5059127;28;20566;-79
2022/06/15 09:36:46;;;;;;;24.15;11.48;;;;;;;20.45;52.83;101837.13;5064028;28;20036;-79
2022/06/15 09:39:14;;;;;;;21.02;10.48;;;;;;;20.48;52.71;101831.84;5055621;28;20032;-78
2022/06/15 09:41:42;;;;;;;20.33;10.85;;;;;;;20.53;52.17;101826.53;5071505;28;20024;-77
2022/06/15 09:44:31;;;;;;;19.00;10.47;;;;;;;20.62;57.53;101827.41;5071707;28;20032;-79
2022/06/15 09:47:38;;;;;;;20.33;10.55;;;;;;;20.74;53.77;101825.63;5069992;28;20032;-79
2022/06/15 09:50:15;;;;;;;18.35;9.48;;;;;;;20.80;54.03;101822.97;4990996;28;20034;-79
2022/06/15 09:52:56;;;;;;;18.27;9.68;;;;;;;20.81;53.51;101830.00;5046307;28;20684;-79
2022/06/15 09:55:35;;;;;;;17.02;9.38;;;;;;;20.87;51.69;101823.81;5065280;28;20025;-79
2022/06/15 09:58:02;;;;;;;20.73;10.65;;;;;;;20.90;51.80;101821.16;5049873;28;20068;-79
2022/06/15 10:00:28;;;;;;;18.67;9.63;;;;;;;20.90;48.66;101827.34;5051079;28;20115;-78
2022/06/15 10:03:01;;;;;;;21.20;9.50;;;;;;;20.90;50.76;101819.41;5071213;28;20025;-78
2022/06/15 10:05:33;;;;;;;17.95;9.57;;;;;;;21.00;50.31;101823.78;5057539;28;20444;-78
2022/06/15 10:08:03;;;;;;;16.45;8.82;;;;;;;21.09;53.33;101816.69;5068713;28;20099;-77
2022/06/15 10:10:33;;;;;;;21.73;9.75;;;;;;;21.16;50.01;101815.75;5056465;28;20060;-79
2022/06/15 10:13:04;;;;;;;19.95;9.15;;;;;;;21.29;54.46;101825.41;5063765;28;20426;-78
2022/06/15 10:15:32;;;;;;;21.95;9.95;;;;;;;21.37;50.65;101828.00;5072000;28;20082;-78
2022/06/15 10:18:02;;;;;;;19.90;8.70;;;;;;;21.40;50.24;101828.00;5065392;28;20111;-78
2022/06/15 10:20:36;;;;;;;17.42;10.05;;;;;;;21.40;48.99;101827.13;5058114;28;20028;-79
2022/06/15 10:23:14;;;;;;;18.33;9.48;;;;;;;21.42;48.20;101828.88;5052856;28;20029;-78
2022/06/15 10:25:50;;;;;;;17.63;8.90;;;;;;;21.47;52.01;101823.53;5072094;28;20132;-78
2022/06/15 10:28:22;;;;;;;16.90;10.25;;;;;;;21.47;48.40;101816.47;5057722;28;20247;-79
2022/06/15 10:30:57;;;;;;;17.20;9.90;;;;;;;21.47;49.22;101819.13;5060040;28;20103;-78
2022/06/15 10:33:23;;;;;;;18.85;9.23;;;;;;;21.59;50.52;101818.19;5069193;28;20025;-78
2022/06/15 10:36:02;;;;;;;20.63;10.23;;;;;;;21.62;49.93;101814.63;5065973;28;20039;-78
2022/06/15 10:38:28;;;;;;;16.25;9.38;;;;;;;21.69;51.21;101824.31;5056149;28;20050;-79
2022/06/15 10:43:45;;;;;;;16.30;10.10;;;;;;;21.73;46.38;101819.88;5057644;28;20078;-80
2022/06/15 10:46:10;;;;;;;19.00;9.80;;;;;;;21.66;46.81;101817.25;5054805;28;20381;-78
2022/06/15 10:51:38;;;;;;;20.50;10.10;;;;;;;21.76;48.16;101809.25;5147381;23;20075;-96
2022/06/15 10:54:29;;;;;;;18.73;10.32;;;;;;;21.79;48.89;101809.22;5058062;28;20032;-96
2022/06/15 11:02:37;;;;;;;17.60;9.30;;;;;;;22.08;48.87;101802.78;5032940;28;20049;-79
2022/06/15 11:05:32;;;;;;;17.67;8.70;;;;;;;22.16;50.26;101800.91;5029986;28;20096;-79
2022/06/15 11:08:03;;;;;;;18.83;9.90;;;;;;;22.19;47.16;101799.13;5015182;28;20048;-79
2022/06/15 11:10:39;;;;;;;19.30;9.40;;;;;;;22.26;48.44;101794.66;5010645;28;20029;-78
2022/06/15 11:13:20;;;;;;;20.48;12.23;;;;;;;22.29;45.75;101785.75;5029771;28;20029;-79
2022/06/15 11:19:00;;;;;;;17.98;10.80;;;;;;;22.37;48.95;101794.56;5026214;28;20052;-79
2022/06/15 11:21:31;;;;;;;20.55;10.52;;;;;;;22.38;45.80;101797.19;5007106;28;20036;-78
2022/06/15 11:24:15;;;;;;;19.33;11.30;;;;;;;22.37;45.03;101790.13;5009834;28;20033;-78
2022/06/15 11:26:59;;;;;;;17.88;9.98;;;;;;;22.42;48.27;101787.44;5033045;28;20032;-78
2022/06/15 11:29:43;;;;;;;18.50;9.20;;;;;;;22.52;50.03;101793.50;5010884;28;20030;-79
2022/06/15 11:32:15;;;;;;;20.95;9.68;;;;;;;22.58;48.76;101799.66;5030168;28;20036;-80
2022/06/15 11:35:10;;;;;;;16.27;9.30;;;;;;;22.78;50.66;101795.00;5030875;28;20080;-79
2022/06/15 11:38:19;;;;;;;17.30;10.18;;;;;;;22.78;46.51;101795.88;5015588;28;20038;-79
2022/06/15 11:40:50;;;;;;;;;;;;;;;22.81;48.09;101802.94;4950555;28;20031;-79
2022/06/15 11:43:29;;;;;;;19.20;9.18;;;;;;;22.86;48.78;101794.00;4949975;29;19921;-79
2022/06/15 11:45:57;;;;;;;16.38;9.55;;;;;;;22.89;45.09;101803.72;4996165;28;20489;-79
2022/06/15 11:48:43;;;;;;;18.70;9.70;;;;;;;22.89;46.80;101795.75;5030320;28;20021;-79